sensor_id;sensor_type;location;lat;lon;timestamp;P1;durP1;ratioP1;P2;durP2;ratioP2
24891;SDS011;12954;50.688;10.908;2023-02-01T10:45:22;5.30;;;1.63;;
24891;SDS011;12954;50.688;10.908;2023-02-01T10:47:56;8.27;;;2.13;;
24891;SDS011;12954;50.688;10.908;2023-02-01T10:50:31;7.22;;;2.55;;
24891;SDS011;12954;50.688;10.908;2023-02-01T10:53:10;6.88;;;2.03;;
24891;SDS011;12954;50.688;10.908;2023-02-01T10:55:48;5.93;;;2.03;;
24891;SDS011;12954;50.688;10.908;2023-02-01T10:58:20;10.23;;;2.55;;
24891;SDS011;12954;50.688;10.908;2023-02-01T11:00:56;6.60;;;2.08;;
24891;SDS011;12954;50.688;10.908;2023-02-01T11:03:34;11.00;;;2.55;;
24891;SDS011;12954;50.688;10.908;2023-02-01T11:06:10;6.18;;;2.10;;
24891;SDS011;12954;50.688;10.908;2023-02-01T11:08:47;5.38;;;2.30;;
24891;SDS011;12954;50.688;10.908;2023-02-01T11:11:18;5.97;;;2.45;;
24891;SDS011;12954;50.688;10.908;2023-02-01T11:13:51;6.57;;;2.25;;
24891;SDS011;12954;50.688;10.908;2023-02-01T11:16:28;8.80;;;2.40;;
24891;SDS011;12954;50.688;10.908;2023-02-01T11:18:59;11.88;;;2.35;;
24891;SDS011;12954;50.688;10.908;2023-02-01T11:21:28;6.85;;;1.92;;
24891;SDS011;12954;50.688;10.908;2023-02-01T11:23:57;7.03;;;2.10;;
24891;SDS011;12954;50.688;10.908;2023-02-01T11:26:29;6.60;;;1.83;;
24891;SDS011;12954;50.688;10.908;2023-02-01T11:29:00;8.00;;;3.00;;
24891;SDS011;12954;50.688;10.908;2023-02-01T11:31:32;7.82;;;2.58;;
24891;SDS011;12954;50.688;10.908;2023-02-01T11:34:06;5.28;;;1.92;;
24891;SDS011;12954;50.688;10.908;2023-02-01T11:36:37;7.63;;;2.38;;
24891;SDS011;12954;50.688;10.908;2023-02-01T11:39:08;7.25;;;2.22;;
24891;SDS011;12954;50.688;10.908;2023-02-01T11:41:55;7.78;;;2.13;;
24891;SDS011;12954;50.688;10.908;2023-02-01T11:44:29;7.45;;;2.15;;
24891;SDS011;12954;50.688;10.908;2023-02-01T11:47:21;6.72;;;2.30;;
24891;SDS011;12954;50.688;10.908;2023-02-01T11:49:52;5.35;;;1.70;;
24891;SDS011;12954;50.688;10.908;2023-02-01T11:52:26;7.32;;;2.10;;
24891;SDS011;12954;50.688;10.908;2023-02-01T11:55:14;5.47;;;1.98;;
24891;SDS011;12954;50.688;10.908;2023-02-01T12:00:41;6.35;;;2.28;;
24891;SDS011;12954;50.688;10.908;2023-02-01T12:06:31;10.02;;;2.72;;
24891;SDS011;12954;50.688;10.908;2023-02-01T12:12:08;11.02;;;2.90;;
24891;SDS011;12954;50.688;10.908;2023-02-01T12:14:46;10.25;;;2.88;;
24891;SDS011;12954;50.688;10.908;2023-02-01T12:20:20;10.07;;;3.20;;
24891;SDS011;12954;50.688;10.908;2023-02-01T12:23:01;7.30;;;2.30;;
24891;SDS011;12954;50.688;10.908;2023-02-01T12:25:53;9.65;;;2.58;;
24891;SDS011;12954;50.688;10.908;2023-02-01T12:28:39;9.55;;;2.75;;
24891;SDS011;12954;50.688;10.908;2023-02-01T12:31:27;9.02;;;2.90;;
24891;SDS011;12954;50.688;10.908;2023-02-01T12:34:25;8.18;;;2.60;;
24891;SDS011;12954;50.688;10.908;2023-02-01T12:37:07;9.82;;;3.40;;
24891;SDS011;12954;50.688;10.908;2023-02-01T12:39:47;9.40;;;2.60;;
24891;SDS011;12954;50.688;10.908;2023-02-01T12:42:22;10.40;;;3.72;;
24891;SDS011;12954;50.688;10.908;2023-02-01T12:44:54;9.37;;;3.10;;
24891;SDS011;12954;50.688;10.908;2023-02-01T12:47:29;8.80;;;2.42;;
24891;SDS011;12954;50.688;10.908;2023-02-01T12:50:03;8.25;;;2.50;;
24891;SDS011;12954;50.688;10.908;2023-02-01T12:52:42;13.75;;;3.40;;
24891;SDS011;12954;50.688;10.908;2023-02-01T12:55:15;7.43;;;2.63;;
24891;SDS011;12954;50.688;10.908;2023-02-01T12:57:50;9.63;;;3.17;;
24891;SDS011;12954;50.688;10.908;2023-02-01T13:00:25;8.43;;;2.95;;
24891;SDS011;12954;50.688;10.908;2023-02-01T13:03:00;9.77;;;3.03;;
24891;SDS011;12954;50.688;10.908;2023-02-01T13:05:34;8.85;;;2.80;;
24891;SDS011;12954;50.688;10.908;2023-02-01T13:08:17;10.20;;;2.85;;
24891;SDS011;12954;50.688;10.908;2023-02-01T13:10:52;11.18;;;2.60;;
24891;SDS011;12954;50.688;10.908;2023-02-01T13:13:28;10.75;;;3.28;;
24891;SDS011;12954;50.688;10.908;2023-02-01T13:16:11;6.50;;;2.47;;
24891;SDS011;12954;50.688;10.908;2023-02-01T13:18:45;9.48;;;3.05;;
24891;SDS011;12954;50.688;10.908;2023-02-01T13:21:18;9.45;;;2.85;;
24891;SDS011;12954;50.688;10.908;2023-02-01T13:23:53;8.05;;;2.60;;
24891;SDS011;12954;50.688;10.908;2023-02-01T13:26:21;11.50;;;3.42;;
24891;SDS011;12954;50.688;10.908;2023-02-01T13:28:51;12.93;;;3.20;;
24891;SDS011;12954;50.688;10.908;2023-02-01T13:31:27;7.22;;;2.00;;
24891;SDS011;12954;50.688;10.908;2023-02-01T13:37:15;10.00;;;3.28;;
24891;SDS011;12954;50.688;10.908;2023-02-01T13:39:59;11.20;;;3.10;;
24891;SDS011;12954;50.688;10.908;2023-02-01T13:42:47;10.93;;;2.55;;
24891;SDS011;12954;50.688;10.908;2023-02-01T13:45:19;13.40;;;3.40;;
24891;SDS011;12954;50.688;10.908;2023-02-01T13:47:51;11.23;;;3.50;;
24891;SDS011;12954;50.688;10.908;2023-02-01T13:50:22;11.50;;;2.50;;
24891;SDS011;12954;50.688;10.908;2023-02-01T13:52:53;11.05;;;2.67;;
24891;SDS011;12954;50.688;10.908;2023-02-01T13:55:28;8.90;;;3.08;;
24891;SDS011;12954;50.688;10.908;2023-02-01T13:58:00;9.70;;;2.70;;
24891;SDS011;12954;50.688;10.908;2023-02-01T14:00:33;15.40;;;4.40;;
24891;SDS011;12954;50.688;10.908;2023-02-01T14:06:00;13.20;;;2.78;;
24891;SDS011;12954;50.688;10.908;2023-02-01T14:11:43;8.75;;;2.45;;
24891;SDS011;12954;50.688;10.908;2023-02-01T14:23:13;5.60;;;2.25;;
24891;SDS011;12954;50.688;10.908;2023-02-01T14:25:44;6.38;;;1.83;;
24891;SDS011;12954;50.688;10.908;2023-02-01T14:28:24;6.25;;;2.05;;
24891;SDS011;12954;50.688;10.908;2023-02-01T14:30:56;6.80;;;2.38;;
24891;SDS011;12954;50.688;10.908;2023-02-01T14:33:27;11.80;;;2.15;;
24891;SDS011;12954;50.688;10.908;2023-02-01T14:35:58;9.60;;;2.67;;
24891;SDS011;12954;50.688;10.908;2023-02-01T14:38:31;10.57;;;2.30;;
24891;SDS011;12954;50.688;10.908;2023-02-01T14:41:13;8.60;;;2.38;;
24891;SDS011;12954;50.688;10.908;2023-02-01T14:44:22;8.77;;;2.33;;
24891;SDS011;12954;50.688;10.908;2023-02-01T14:47:03;8.95;;;2.22;;
24891;SDS011;12954;50.688;10.908;2023-02-01T14:50:12;7.55;;;2.03;;
24891;SDS011;12954;50.688;10.908;2023-02-01T14:53:01;10.07;;;2.30;;
24891;SDS011;12954;50.688;10.908;2023-02-01T14:55:40;10.88;;;1.85;;
24891;SDS011;12954;50.688;10.908;2023-02-01T14:58:14;8.20;;;2.15;;
24891;SDS011;12954;50.688;10.908;2023-02-01T15:00:49;6.03;;;2.05;;
24891;SDS011;12954;50.688;10.908;2023-02-01T15:03:25;10.52;;;2.30;;
24891;SDS011;12954;50.688;10.908;2023-02-01T15:06:24;8.80;;;1.90;;
24891;SDS011;12954;50.688;10.908;2023-02-01T15:08:57;9.82;;;2.63;;
24891;SDS011;12954;50.688;10.908;2023-02-01T15:11:29;9.73;;;2.13;;
24891;SDS011;12954;50.688;10.908;2023-02-01T15:13:58;11.85;;;2.03;;
24891;SDS011;12954;50.688;10.908;2023-02-01T15:16:28;7.22;;;1.85;;
24891;SDS011;12954;50.688;10.908;2023-02-01T15:19:10;7.43;;;2.20;;
24891;SDS011;12954;50.688;10.908;2023-02-01T15:21:43;7.75;;;2.17;;
24891;SDS011;12954;50.688;10.908;2023-02-01T15:24:17;10.60;;;2.05;;
24891;SDS011;12954;50.688;10.908;2023-02-01T15:26:48;6.60;;;1.92;;
24891;SDS011;12954;50.688;10.908;2023-02-01T15:29:18;7.72;;;1.83;;
24891;SDS011;12954;50.688;10.908;2023-02-01T15:31:49;8.52;;;1.83;;
24891;SDS011;12954;50.688;10.908;2023-02-01T15:34:19;8.00;;;1.95;;
24891;SDS011;12954;50.688;10.908;2023-02-01T15:36:50;4.55;;;1.75;;
24891;SDS011;12954;50.688;10.908;2023-02-01T15:39:28;6.95;;;2.10;;
24891;SDS011;12954;50.688;10.908;2023-02-01T15:41:59;7.50;;;2.60;;
24891;SDS011;12954;50.688;10.908;2023-02-01T15:44:37;7.13;;;2.30;;
24891;SDS011;12954;50.688;10.908;2023-02-01T15:47:16;8.88;;;2.17;;
24891;SDS011;12954;50.688;10.908;2023-02-01T15:49:49;11.57;;;2.88;;
24891;SDS011;12954;50.688;10.908;2023-02-01T15:52:24;7.38;;;1.77;;
24891;SDS011;12954;50.688;10.908;2023-02-01T15:54:59;9.57;;;2.10;;
24891;SDS011;12954;50.688;10.908;2023-02-01T15:57:30;4.90;;;2.17;;
24891;SDS011;12954;50.688;10.908;2023-02-01T16:00:02;6.43;;;2.47;;
24891;SDS011;12954;50.688;10.908;2023-02-01T16:02:36;5.90;;;1.83;;
24891;SDS011;12954;50.688;10.908;2023-02-01T16:05:24;5.93;;;2.05;;
24891;SDS011;12954;50.688;10.908;2023-02-01T16:07:59;5.30;;;1.60;;
24891;SDS011;12954;50.688;10.908;2023-02-01T16:10:31;5.38;;;1.85;;
24891;SDS011;12954;50.688;10.908;2023-02-01T16:13:05;8.38;;;2.40;;
24891;SDS011;12954;50.688;10.908;2023-02-01T16:15:34;6.57;;;1.75;;
24891;SDS011;12954;50.688;10.908;2023-02-01T16:18:04;7.70;;;2.33;;
24891;SDS011;12954;50.688;10.908;2023-02-01T16:20:36;7.35;;;2.15;;
24891;SDS011;12954;50.688;10.908;2023-02-01T16:23:06;5.65;;;1.80;;
24891;SDS011;12954;50.688;10.908;2023-02-01T16:25:36;7.63;;;1.88;;
24891;SDS011;12954;50.688;10.908;2023-02-01T16:28:05;9.95;;;3.17;;
24891;SDS011;12954;50.688;10.908;2023-02-01T16:30:34;11.25;;;2.17;;
24891;SDS011;12954;50.688;10.908;2023-02-01T16:33:05;11.10;;;4.80;;
24891;SDS011;12954;50.688;10.908;2023-02-01T16:35:39;4.03;;;1.50;;
24891;SDS011;12954;50.688;10.908;2023-02-01T16:38:09;5.85;;;1.90;;
24891;SDS011;12954;50.688;10.908;2023-02-01T16:40:40;7.35;;;2.40;;
24891;SDS011;12954;50.688;10.908;2023-02-01T16:43:11;6.93;;;1.63;;
24891;SDS011;12954;50.688;10.908;2023-02-01T16:45:41;4.38;;;1.73;;
24891;SDS011;12954;50.688;10.908;2023-02-01T16:48:17;5.60;;;1.65;;
24891;SDS011;12954;50.688;10.908;2023-02-01T16:50:49;9.48;;;3.65;;
24891;SDS011;12954;50.688;10.908;2023-02-01T16:53:21;5.45;;;1.73;;
24891;SDS011;12954;50.688;10.908;2023-02-01T16:55:50;6.75;;;1.90;;
24891;SDS011;12954;50.688;10.908;2023-02-01T16:58:19;6.60;;;1.92;;
24891;SDS011;12954;50.688;10.908;2023-02-01T17:00:48;4.78;;;1.75;;
24891;SDS011;12954;50.688;10.908;2023-02-01T17:03:18;6.20;;;2.00;;
24891;SDS011;12954;50.688;10.908;2023-02-01T17:05:49;4.68;;;1.90;;
24891;SDS011;12954;50.688;10.908;2023-02-01T17:08:22;4.93;;;1.80;;
24891;SDS011;12954;50.688;10.908;2023-02-01T17:10:59;5.90;;;2.03;;
24891;SDS011;12954;50.688;10.908;2023-02-01T17:13:27;6.03;;;2.33;;
24891;SDS011;12954;50.688;10.908;2023-02-01T17:15:56;6.07;;;2.20;;
24891;SDS011;12954;50.688;10.908;2023-02-01T17:18:28;7.25;;;2.00;;
24891;SDS011;12954;50.688;10.908;2023-02-01T17:20:59;7.10;;;2.30;;
24891;SDS011;12954;50.688;10.908;2023-02-01T17:23:30;5.70;;;1.83;;
24891;SDS011;12954;50.688;10.908;2023-02-01T17:25:59;4.22;;;1.85;;
24891;SDS011;12954;50.688;10.908;2023-02-01T17:28:28;5.15;;;1.90;;
24891;SDS011;12954;50.688;10.908;2023-02-01T17:30:57;14.38;;;8.85;;
24891;SDS011;12954;50.688;10.908;2023-02-01T17:33:28;8.45;;;4.55;;
24891;SDS011;12954;50.688;10.908;2023-02-01T17:36:02;4.72;;;1.65;;
24891;SDS011;12954;50.688;10.908;2023-02-01T17:38:32;4.70;;;1.52;;
24891;SDS011;12954;50.688;10.908;2023-02-01T17:41:01;5.18;;;1.88;;
24891;SDS011;12954;50.688;10.908;2023-02-01T17:43:29;4.15;;;1.90;;
24891;SDS011;12954;50.688;10.908;2023-02-01T17:45:59;4.68;;;1.48;;
24891;SDS011;12954;50.688;10.908;2023-02-01T17:48:32;4.70;;;1.75;;
24891;SDS011;12954;50.688;10.908;2023-02-01T17:51:00;6.07;;;1.83;;
24891;SDS011;12954;50.688;10.908;2023-02-01T17:53:30;4.60;;;1.85;;
24891;SDS011;12954;50.688;10.908;2023-02-01T17:56:01;4.47;;;1.63;;
24891;SDS011;12954;50.688;10.908;2023-02-01T17:58:30;4.75;;;2.00;;
24891;SDS011;12954;50.688;10.908;2023-02-01T18:01:00;5.43;;;1.42;;
24891;SDS011;12954;50.688;10.908;2023-02-01T18:03:30;6.47;;;2.03;;
24891;SDS011;12954;50.688;10.908;2023-02-01T18:06:02;3.72;;;1.40;;
24891;SDS011;12954;50.688;10.908;2023-02-01T18:08:32;7.97;;;2.13;;
24891;SDS011;12954;50.688;10.908;2023-02-01T18:11:00;7.05;;;1.90;;
24891;SDS011;12954;50.688;10.908;2023-02-01T18:13:30;4.97;;;1.85;;
24891;SDS011;12954;50.688;10.908;2023-02-01T18:15:59;6.53;;;1.80;;
24891;SDS011;12954;50.688;10.908;2023-02-01T18:18:30;4.80;;;1.92;;
24891;SDS011;12954;50.688;10.908;2023-02-01T18:21:03;4.90;;;1.85;;
24891;SDS011;12954;50.688;10.908;2023-02-01T18:23:33;4.95;;;1.63;;
24891;SDS011;12954;50.688;10.908;2023-02-01T18:26:02;8.20;;;2.22;;
24891;SDS011;12954;50.688;10.908;2023-02-01T18:28:31;6.20;;;2.20;;
24891;SDS011;12954;50.688;10.908;2023-02-01T18:31:00;4.70;;;1.92;;
24891;SDS011;12954;50.688;10.908;2023-02-01T18:33:33;4.70;;;2.00;;
24891;SDS011;12954;50.688;10.908;2023-02-01T18:36:02;5.82;;;1.60;;
24891;SDS011;12954;50.688;10.908;2023-02-01T18:38:30;5.97;;;1.90;;
24891;SDS011;12954;50.688;10.908;2023-02-01T18:40:59;5.30;;;1.55;;
24891;SDS011;12954;50.688;10.908;2023-02-01T18:43:30;4.32;;;1.77;;
24891;SDS011;12954;50.688;10.908;2023-02-01T18:45:59;4.32;;;1.83;;
24891;SDS011;12954;50.688;10.908;2023-02-01T18:48:27;3.38;;;1.80;;
24891;SDS011;12954;50.688;10.908;2023-02-01T18:50:58;5.25;;;1.95;;
24891;SDS011;12954;50.688;10.908;2023-02-01T18:53:27;8.05;;;2.15;;
24891;SDS011;12954;50.688;10.908;2023-02-01T18:55:56;6.40;;;2.15;;
24891;SDS011;12954;50.688;10.908;2023-02-01T18:58:26;5.65;;;2.10;;
24891;SDS011;12954;50.688;10.908;2023-02-01T19:00:56;7.63;;;2.63;;
24891;SDS011;12954;50.688;10.908;2023-02-01T19:03:25;5.20;;;2.40;;
24891;SDS011;12954;50.688;10.908;2023-02-01T19:05:54;7.07;;;2.42;;
24891;SDS011;12954;50.688;10.908;2023-02-01T19:08:24;6.47;;;2.30;;
24891;SDS011;12954;50.688;10.908;2023-02-01T19:10:53;4.75;;;1.88;;
24891;SDS011;12954;50.688;10.908;2023-02-01T19:13:22;5.40;;;2.28;;
24891;SDS011;12954;50.688;10.908;2023-02-01T19:15:56;5.35;;;2.20;;
24891;SDS011;12954;50.688;10.908;2023-02-01T19:18:26;6.00;;;1.80;;
24891;SDS011;12954;50.688;10.908;2023-02-01T19:20:54;4.97;;;1.52;;
24891;SDS011;12954;50.688;10.908;2023-02-01T19:23:31;4.50;;;1.80;;
24891;SDS011;12954;50.688;10.908;2023-02-01T19:26:00;4.47;;;1.83;;
24891;SDS011;12954;50.688;10.908;2023-02-01T19:28:29;8.15;;;1.88;;
24891;SDS011;12954;50.688;10.908;2023-02-01T19:31:06;3.53;;;1.30;;
24891;SDS011;12954;50.688;10.908;2023-02-01T19:33:37;5.05;;;1.40;;
24891;SDS011;12954;50.688;10.908;2023-02-01T19:36:07;3.85;;;1.65;;
24891;SDS011;12954;50.688;10.908;2023-02-01T19:38:38;4.93;;;1.63;;
24891;SDS011;12954;50.688;10.908;2023-02-01T19:41:07;4.57;;;1.95;;
24891;SDS011;12954;50.688;10.908;2023-02-01T19:43:36;6.78;;;1.90;;
24891;SDS011;12954;50.688;10.908;2023-02-01T19:46:06;1.90;;;1.30;;
24891;SDS011;12954;50.688;10.908;2023-02-01T19:48:35;3.38;;;1.83;;
24891;SDS011;12954;50.688;10.908;2023-02-01T19:51:03;2.95;;;1.20;;
24891;SDS011;12954;50.688;10.908;2023-02-01T19:53:33;1.92;;;0.80;;
24891;SDS011;12954;50.688;10.908;2023-02-01T19:56:06;1.73;;;0.63;;
24891;SDS011;12954;50.688;10.908;2023-02-01T19:58:36;1.65;;;0.47;;
24891;SDS011;12954;50.688;10.908;2023-02-01T20:01:06;0.15;;;0.10;;
24891;SDS011;12954;50.688;10.908;2023-02-01T20:03:36;1.02;;;0.38;;
24891;SDS011;12954;50.688;10.908;2023-02-01T20:06:06;0.15;;;0.10;;
24891;SDS011;12954;50.688;10.908;2023-02-01T20:08:36;0.82;;;0.10;;
24891;SDS011;12954;50.688;10.908;2023-02-01T20:11:09;0.35;;;0.20;;
24891;SDS011;12954;50.688;10.908;2023-02-01T20:13:39;0.88;;;0.40;;
24891;SDS011;12954;50.688;10.908;2023-02-01T20:16:07;1.02;;;0.50;;
24891;SDS011;12954;50.688;10.908;2023-02-01T20:18:36;1.27;;;0.70;;
24891;SDS011;12954;50.688;10.908;2023-02-01T20:21:05;1.35;;;0.50;;
24891;SDS011;12954;50.688;10.908;2023-02-01T20:23:34;3.30;;;0.98;;
24891;SDS011;12954;50.688;10.908;2023-02-01T20:26:05;1.08;;;0.50;;
24891;SDS011;12954;50.688;10.908;2023-02-01T20:28:37;0.98;;;0.60;;
24891;SDS011;12954;50.688;10.908;2023-02-01T20:31:06;2.75;;;0.57;;
24891;SDS011;12954;50.688;10.908;2023-02-01T20:33:37;1.50;;;0.90;;
24891;SDS011;12954;50.688;10.908;2023-02-01T20:36:06;1.25;;;0.70;;
24891;SDS011;12954;50.688;10.908;2023-02-01T20:38:36;1.35;;;0.57;;
24891;SDS011;12954;50.688;10.908;2023-02-01T20:41:06;0.98;;;0.57;;
24891;SDS011;12954;50.688;10.908;2023-02-01T20:43:38;1.65;;;0.70;;
24891;SDS011;12954;50.688;10.908;2023-02-01T20:46:06;2.88;;;0.70;;
24891;SDS011;12954;50.688;10.908;2023-02-01T20:48:36;2.50;;;0.80;;
24891;SDS011;12954;50.688;10.908;2023-02-01T20:51:05;3.05;;;0.85;;
24891;SDS011;12954;50.688;10.908;2023-02-01T20:53:34;2.88;;;1.10;;
24891;SDS011;12954;50.688;10.908;2023-02-01T20:56:03;3.53;;;1.30;;
24891;SDS011;12954;50.688;10.908;2023-02-01T20:58:33;3.58;;;0.95;;
24891;SDS011;12954;50.688;10.908;2023-02-01T21:01:04;3.28;;;1.30;;
24891;SDS011;12954;50.688;10.908;2023-02-01T21:03:33;3.75;;;1.38;;
24891;SDS011;12954;50.688;10.908;2023-02-01T21:06:02;6.40;;;1.70;;
24891;SDS011;12954;50.688;10.908;2023-02-01T21:08:32;5.70;;;1.35;;
24891;SDS011;12954;50.688;10.908;2023-02-01T21:11:01;7.55;;;2.13;;
24891;SDS011;12954;50.688;10.908;2023-02-01T21:13:33;4.32;;;2.03;;
24891;SDS011;12954;50.688;10.908;2023-02-01T21:16:08;3.92;;;1.40;;
24891;SDS011;12954;50.688;10.908;2023-02-01T21:18:39;2.85;;;1.02;;
24891;SDS011;12954;50.688;10.908;2023-02-01T21:21:08;3.13;;;1.02;;
24891;SDS011;12954;50.688;10.908;2023-02-01T21:23:38;4.40;;;1.27;;
24891;SDS011;12954;50.688;10.908;2023-02-01T21:26:11;4.00;;;1.23;;
24891;SDS011;12954;50.688;10.908;2023-02-01T21:28:40;3.15;;;1.10;;
24891;SDS011;12954;50.688;10.908;2023-02-01T21:31:10;2.38;;;1.00;;
24891;SDS011;12954;50.688;10.908;2023-02-01T21:33:39;1.27;;;0.50;;
24891;SDS011;12954;50.688;10.908;2023-02-01T21:36:08;1.52;;;0.47;;
24891;SDS011;12954;50.688;10.908;2023-02-01T21:38:44;1.33;;;0.50;;
24891;SDS011;12954;50.688;10.908;2023-02-01T21:41:16;1.45;;;0.60;;
24891;SDS011;12954;50.688;10.908;2023-02-01T21:44:02;2.60;;;0.85;;
24891;SDS011;12954;50.688;10.908;2023-02-01T21:46:32;3.88;;;0.88;;
24891;SDS011;12954;50.688;10.908;2023-02-01T21:49:01;3.17;;;0.88;;
24891;SDS011;12954;50.688;10.908;2023-02-01T21:51:32;3.25;;;0.90;;
24891;SDS011;12954;50.688;10.908;2023-02-01T21:54:03;6.03;;;1.30;;
24891;SDS011;12954;50.688;10.908;2023-02-01T21:56:32;2.38;;;0.80;;
24891;SDS011;12954;50.688;10.908;2023-02-01T21:59:00;3.90;;;1.40;;
24891;SDS011;12954;50.688;10.908;2023-02-01T22:01:29;2.33;;;1.10;;
24891;SDS011;12954;50.688;10.908;2023-02-01T22:03:59;4.05;;;1.20;;
24891;SDS011;12954;50.688;10.908;2023-02-01T22:06:28;5.32;;;1.30;;
24891;SDS011;12954;50.688;10.908;2023-02-01T22:08:57;3.75;;;1.25;;
24891;SDS011;12954;50.688;10.908;2023-02-01T22:11:26;7.00;;;1.65;;
24891;SDS011;12954;50.688;10.908;2023-02-01T22:13:55;5.10;;;1.55;;
24891;SDS011;12954;50.688;10.908;2023-02-01T22:16:23;3.05;;;1.25;;
24891;SDS011;12954;50.688;10.908;2023-02-01T22:18:52;3.92;;;1.13;;
24891;SDS011;12954;50.688;10.908;2023-02-01T22:21:22;4.72;;;1.45;;
24891;SDS011;12954;50.688;10.908;2023-02-01T22:23:53;4.72;;;1.48;;
24891;SDS011;12954;50.688;10.908;2023-02-01T22:26:24;5.13;;;1.65;;
24891;SDS011;12954;50.688;10.908;2023-02-01T22:28:53;4.28;;;0.98;;
24891;SDS011;12954;50.688;10.908;2023-02-01T22:31:22;3.63;;;0.95;;
24891;SDS011;12954;50.688;10.908;2023-02-01T22:33:50;4.35;;;1.40;;
24891;SDS011;12954;50.688;10.908;2023-02-01T22:36:19;5.38;;;1.10;;
24891;SDS011;12954;50.688;10.908;2023-02-01T22:38:48;4.53;;;1.35;;
24891;SDS011;12954;50.688;10.908;2023-02-01T22:41:17;4.05;;;1.15;;
24891;SDS011;12954;50.688;10.908;2023-02-01T22:43:46;5.47;;;1.40;;
24891;SDS011;12954;50.688;10.908;2023-02-01T22:46:15;3.17;;;1.08;;
24891;SDS011;12954;50.688;10.908;2023-02-01T22:48:46;4.93;;;1.20;;
24891;SDS011;12954;50.688;10.908;2023-02-01T22:51:15;4.15;;;1.00;;
24891;SDS011;12954;50.688;10.908;2023-02-01T22:53:45;5.78;;;1.10;;
24891;SDS011;12954;50.688;10.908;2023-02-01T22:56:15;5.95;;;1.33;;
24891;SDS011;12954;50.688;10.908;2023-02-01T22:58:44;4.30;;;1.10;;
24891;SDS011;12954;50.688;10.908;2023-02-01T23:01:12;5.00;;;1.25;;
24891;SDS011;12954;50.688;10.908;2023-02-01T23:03:41;6.40;;;1.15;;
24891;SDS011;12954;50.688;10.908;2023-02-01T23:06:10;4.47;;;1.10;;
24891;SDS011;12954;50.688;10.908;2023-02-01T23:08:39;6.80;;;1.00;;
24891;SDS011;12954;50.688;10.908;2023-02-01T23:11:08;3.58;;;1.10;;
24891;SDS011;12954;50.688;10.908;2023-02-01T23:13:38;3.78;;;1.00;;
24891;SDS011;12954;50.688;10.908;2023-02-01T23:16:07;5.30;;;1.15;;
24891;SDS011;12954;50.688;10.908;2023-02-01T23:18:37;5.10;;;1.10;;
24891;SDS011;12954;50.688;10.908;2023-02-01T23:21:07;4.03;;;1.20;;
24891;SDS011;12954;50.688;10.908;2023-02-01T23:23:37;7.03;;;1.40;;
24891;SDS011;12954;50.688;10.908;2023-02-01T23:26:06;5.93;;;1.10;;
24891;SDS011;12954;50.688;10.908;2023-02-01T23:28:34;6.28;;;1.20;;
24891;SDS011;12954;50.688;10.908;2023-02-01T23:31:07;7.10;;;2.17;;
24891;SDS011;12954;50.688;10.908;2023-02-01T23:33:38;8.05;;;2.72;;
24891;SDS011;12954;50.688;10.908;2023-02-01T23:36:10;2.28;;;1.00;;
24891;SDS011;12954;50.688;10.908;2023-02-01T23:38:41;7.93;;;1.48;;
24891;SDS011;12954;50.688;10.908;2023-02-01T23:41:10;3.63;;;0.90;;
24891;SDS011;12954;50.688;10.908;2023-02-01T23:43:39;5.03;;;1.45;;
24891;SDS011;12954;50.688;10.908;2023-02-01T23:46:29;4.57;;;0.98;;
24891;SDS011;12954;50.688;10.908;2023-02-01T23:48:59;4.27;;;1.20;;
24891;SDS011;12954;50.688;10.908;2023-02-01T23:51:29;2.58;;;1.30;;
24891;SDS011;12954;50.688;10.908;2023-02-01T23:53:58;3.63;;;1.00;;
24891;SDS011;12954;50.688;10.908;2023-02-01T23:56:29;4.13;;;1.10;;
24891;SDS011;12954;50.688;10.908;2023-02-01T23:58:59;3.05;;;1.08;;
